Collegeville, Minnesota
Current Conditions -  °F | °C
As of 3:53 AM on Friday 24 Oct 2014 (Local Time) from KSTC Reporting Station
Clear Clear  
Wind Chill: 50°   Ceiling: Unl
Heat Index: 50°   Visibility: 10mi
Dew Point: 41°   Wind: 7mph
Humidity: 71%   Direction: 140°SE
Pressure: 29.89"   Gusts: NA
Location:  45.59°N, 94.36°W
Report Text: KSTC 240853Z AUTO 14006KT 10SM CLR 10/05 A2989 RMK AO2 SLP129 T01000050 58013
Loading
Personal Weather Stations






























Interactive Weather Map
Tropical Storm Tracking
New forecast layout! Learn more

10-Day Weather Forecast

Advertisements
Track Severe Weather on mobile